createdAt,value
2023-01-26T00:00:52.159Z,101860.20
2023-01-26T00:03:20.467Z,101860.85
2023-01-26T00:05:48.817Z,101856.39
2023-01-26T00:08:17.155Z,101858.89
2023-01-26T00:10:50.443Z,101857.70
2023-01-26T00:13:20.046Z,101853.42
2023-01-26T00:15:48.280Z,101852.67
2023-01-26T00:18:16.733Z,101852.31
2023-01-26T00:20:45.201Z,101851.67
2023-01-26T00:23:13.409Z,101851.15
2023-01-26T00:25:41.591Z,101845.31
2023-01-26T00:28:10.002Z,101844.92
2023-01-26T00:30:38.215Z,101847.77
2023-01-26T00:33:09.359Z,101847.77
2023-01-26T00:35:37.913Z,101848.38
2023-01-26T00:38:06.115Z,101838.92
2023-01-26T00:40:35.739Z,101836.09
2023-01-26T00:43:04.282Z,101831.41
2023-01-26T00:45:32.554Z,101827.08
2023-01-26T00:48:00.883Z,101825.79
2023-01-26T00:50:31.502Z,101818.73
2023-01-26T00:53:00.039Z,101816.42
2023-01-26T00:55:32.550Z,101814.28
2023-01-26T00:58:02.312Z,101818.13
2023-01-26T01:00:32.177Z,101822.20
2023-01-26T01:03:00.342Z,101816.26
2023-01-26T01:05:29.867Z,101817.02
2023-01-26T01:07:58.478Z,101812.61
2023-01-26T01:10:27.891Z,101807.27
2023-01-26T01:12:57.237Z,101805.04
2023-01-26T01:15:26.374Z,101803.98
2023-01-26T01:17:56.599Z,101801.63
2023-01-26T01:20:27.703Z,101799.08
2023-01-26T01:22:55.837Z,101792.01
2023-01-26T01:25:24.273Z,101788.02
2023-01-26T01:27:52.530Z,101784.52
2023-01-26T01:30:20.905Z,101780.05
2023-01-26T01:32:51.818Z,101778.17
2023-01-26T01:35:20.331Z,101779.42
2023-01-26T01:37:48.936Z,101777.58
2023-01-26T01:40:20.029Z,101774.02
2023-01-26T01:42:50.498Z,101772.13
2023-01-26T01:45:28.253Z,101771.33
2023-01-26T01:48:02.595Z,101767.55
2023-01-26T01:50:32.596Z,101765.88
2023-01-26T01:53:02.577Z,101763.09
2023-01-26T01:55:30.800Z,101761.75
2023-01-26T01:58:00.820Z,101758.00
2023-01-26T02:00:36.587Z,101754.65
2023-01-26T02:03:38.064Z,101751.36
2023-01-26T02:06:33.980Z,101748.16
2023-01-26T02:10:14.455Z,101740.00
2023-01-26T02:13:10.635Z,101742.48
2023-01-26T02:16:02.847Z,101735.61
2023-01-26T02:25:05.399Z,101730.23
2023-01-26T02:28:04.472Z,101728.84
2023-01-26T02:30:56.403Z,101725.05
2023-01-26T02:33:51.874Z,101717.06
2023-01-26T02:36:43.989Z,101717.55
2023-01-26T02:40:06.476Z,101713.02
2023-01-26T02:43:22.709Z,101712.57
2023-01-26T02:46:41.103Z,101706.66
2023-01-26T02:49:44.362Z,101699.64
2023-01-26T02:53:02.739Z,101698.69
2023-01-26T02:55:45.429Z,101696.98
2023-01-26T02:59:02.802Z,101694.88
2023-01-26T03:01:53.508Z,101695.20
2023-01-26T03:04:40.859Z,101696.31
2023-01-26T03:07:53.179Z,101694.96
2023-01-26T03:11:13.831Z,101691.20
2023-01-26T03:14:09.641Z,101685.14
2023-01-26T03:17:18.739Z,101683.59
2023-01-26T03:20:27.100Z,101676.29
2023-01-26T03:23:23.570Z,101671.77
2023-01-26T03:26:42.026Z,101671.83
2023-01-26T03:29:26.859Z,101671.86
2023-01-26T03:32:30.331Z,101674.55
2023-01-26T03:35:24.275Z,101673.14
2023-01-26T03:38:20.172Z,101667.74
2023-01-26T03:41:26.824Z,101666.21
2023-01-26T03:44:41.811Z,101668.89
2023-01-26T03:47:47.176Z,101666.44
2023-01-26T03:50:47.067Z,101666.30
2023-01-26T03:53:55.851Z,101668.86
2023-01-26T03:56:48.530Z,101671.86
2023-01-26T04:00:06.055Z,101668.04
2023-01-26T04:03:47.272Z,101668.06
2023-01-26T04:07:04.487Z,101667.55
2023-01-26T04:10:02.929Z,101667.56
2023-01-26T04:12:55.095Z,101671.56
2023-01-26T04:15:50.871Z,101669.67
2023-01-26T04:19:23.204Z,101670.48
2023-01-26T04:22:02.457Z,101680.74
2023-01-26T04:29:16.590Z,101685.95
2023-01-26T04:32:39.387Z,101682.44
2023-01-26T04:35:26.276Z,101686.27
2023-01-26T04:38:27.618Z,101686.88
2023-01-26T04:41:16.916Z,101689.58
2023-01-26T04:43:58.352Z,101686.16
2023-01-26T04:47:00.110Z,101684.39
2023-01-26T04:47:23.010Z,101685.10
2023-01-26T04:50:10.430Z,101678.41
2023-01-26T04:53:09.239Z,101676.72
2023-01-26T04:56:12.186Z,101674.29
2023-01-26T04:59:31.633Z,101674.04
2023-01-26T05:02:41.757Z,101673.28
2023-01-26T05:05:39.895Z,101667.65
2023-01-26T05:08:20.065Z,101668.14
2023-01-26T05:14:22.858Z,101667.36
2023-01-26T05:17:34.541Z,101662.80
2023-01-26T05:20:38.191Z,101664.54
2023-01-26T05:23:32.664Z,101668.40
2023-01-26T05:26:28.470Z,101663.50
2023-01-26T05:29:34.831Z,101664.03
2023-01-26T05:33:24.712Z,101666.63
2023-01-26T05:36:01.751Z,101666.34
2023-01-26T05:38:55.127Z,101656.88
2023-01-26T05:41:58.292Z,101655.42
2023-01-26T05:45:08.187Z,101652.27
2023-01-26T05:48:08.419Z,101657.56
2023-01-26T05:54:07.096Z,101663.54
2023-01-26T05:56:57.724Z,101663.87
2023-01-26T06:01:33.089Z,101659.42
2023-01-26T06:03:05.210Z,101657.48
2023-01-26T06:06:07.215Z,101659.06
2023-01-26T06:09:06.145Z,101659.38
2023-01-26T06:23:38.723Z,101665.95
2023-01-26T06:26:09.435Z,101667.05
2023-01-26T06:28:40.171Z,101665.52
2023-01-26T06:31:09.336Z,101661.90
2023-01-26T06:33:39.000Z,101654.95
2023-01-26T06:36:10.665Z,101653.42
2023-01-26T06:38:39.898Z,101653.62
2023-01-26T06:41:10.731Z,101660.00
2023-01-26T06:43:45.219Z,101667.99
2023-01-26T06:46:15.657Z,101666.38
2023-01-26T06:48:44.680Z,101671.94
2023-01-26T06:51:21.292Z,101668.33
2023-01-26T06:53:56.882Z,101669.19
2023-01-26T06:56:47.820Z,101669.36
2023-01-26T06:59:37.593Z,101670.23
2023-01-26T07:02:30.036Z,101666.09
2023-01-26T07:04:59.168Z,101665.93
2023-01-26T08:46:13.512Z,101652.34
2023-01-26T08:48:40.890Z,101644.62
2023-01-26T08:51:07.816Z,101645.86
2023-01-26T08:53:35.538Z,101640.92
2023-01-26T08:56:05.592Z,101639.73
2023-01-26T08:58:33.419Z,101637.89
2023-01-26T09:01:06.926Z,101633.77
2023-01-26T09:03:33.864Z,101627.10
2023-01-26T09:06:00.999Z,101622.02
2023-01-26T09:08:28.003Z,101617.99
2023-01-26T09:10:55.250Z,101617.55
2023-01-26T09:13:22.533Z,101618.80
2023-01-26T09:16:17.976Z,101617.80
2023-01-26T09:18:45.057Z,101617.49
2023-01-26T09:21:12.484Z,101620.36
2023-01-26T09:23:39.469Z,101615.98
2023-01-26T09:26:06.819Z,101608.91
2023-01-26T09:28:34.007Z,101608.74
2023-01-26T09:31:04.879Z,101612.08
2023-01-26T09:33:32.958Z,101608.41
2023-01-26T09:36:04.757Z,101608.02
2023-01-26T09:38:31.729Z,101601.25
2023-01-26T09:41:07.675Z,101601.61
2023-01-26T09:43:52.605Z,101594.05
2023-01-26T09:46:47.667Z,101593.59
2023-01-26T09:49:26.966Z,101593.06
2023-01-26T09:52:01.755Z,101586.20
2023-01-26T09:54:36.874Z,101584.02
2023-01-26T09:57:51.837Z,101582.50
2023-01-26T10:00:23.015Z,101584.79
2023-01-26T10:03:05.299Z,101577.99
2023-01-26T10:05:38.537Z,101567.66
2023-01-26T10:08:13.209Z,101562.80
2023-01-26T10:10:47.305Z,101563.95
2023-01-26T10:13:14.724Z,101558.55
2023-01-26T10:15:42.762Z,101557.59
2023-01-26T10:18:22.103Z,101558.72
2023-01-26T10:20:52.130Z,101556.88
2023-01-26T10:23:24.496Z,101553.33
2023-01-26T10:25:51.544Z,101552.73
2023-01-26T10:28:34.549Z,101549.56
2023-01-26T10:31:02.653Z,101547.88
2023-01-26T10:33:36.736Z,101547.92
2023-01-26T10:36:06.073Z,101537.98
2023-01-26T10:38:33.274Z,101530.59
2023-01-26T10:41:00.982Z,101521.04
2023-01-26T10:43:27.800Z,101518.08
2023-01-26T10:45:55.304Z,101516.68
2023-01-26T10:48:26.239Z,101517.22
2023-01-26T10:50:53.572Z,101518.39
2023-01-26T10:53:24.138Z,101525.27
2023-01-26T10:56:12.790Z,101523.10
2023-01-26T10:58:44.201Z,101517.89
2023-01-26T11:01:15.717Z,101513.04
2023-01-26T11:03:43.053Z,101512.22
2023-01-26T11:06:14.583Z,101507.79
2023-01-26T11:08:42.339Z,101503.80
2023-01-26T11:11:25.957Z,101505.00
2023-01-26T11:14:15.650Z,101508.70
2023-01-26T11:16:47.102Z,101501.70
2023-01-26T11:19:22.197Z,101493.73
2023-01-26T11:22:08.934Z,101498.64
2023-01-26T11:24:50.249Z,101491.42
2023-01-26T11:27:35.507Z,101496.21
2023-01-26T11:30:19.012Z,101496.85
2023-01-26T11:33:12.765Z,101494.60
2023-01-26T11:35:55.979Z,101495.54
2023-01-26T11:38:39.849Z,101489.88
2023-01-26T11:41:31.544Z,101489.45
2023-01-26T11:44:13.761Z,101482.11
2023-01-26T11:46:56.151Z,101483.02
2023-01-26T11:49:32.922Z,101484.81
2023-01-26T11:52:08.924Z,101485.71
2023-01-26T11:54:42.892Z,101485.79
2023-01-26T11:57:21.951Z,101484.34
2023-01-26T11:59:56.479Z,101484.96
2023-01-26T12:02:30.619Z,101484.27
2023-01-26T12:05:02.782Z,101479.87
2023-01-26T12:07:31.992Z,101477.95
2023-01-26T12:10:00.199Z,101474.38
2023-01-26T12:12:43.310Z,101472.02
2023-01-26T12:15:13.248Z,101467.45
2023-01-26T12:17:59.169Z,101465.71
2023-01-26T12:20:31.927Z,101462.95
2023-01-26T12:23:08.087Z,101460.08
2023-01-26T12:25:58.195Z,101460.70
2023-01-26T12:28:44.873Z,101465.16
2023-01-26T12:31:29.027Z,101460.02
2023-01-26T12:33:55.943Z,101459.89
2023-01-26T12:36:31.839Z,101455.28
2023-01-26T12:39:33.029Z,101461.20
2023-01-26T12:42:11.963Z,101460.35
2023-01-26T12:44:44.208Z,101455.73
2023-01-26T12:47:32.569Z,101455.86
2023-01-26T12:50:22.832Z,101461.45
2023-01-26T12:53:06.053Z,101460.94
2023-01-26T12:55:56.395Z,101459.13
2023-01-26T12:58:25.573Z,101451.03
2023-01-26T13:01:00.775Z,101450.02
2023-01-26T13:03:44.119Z,101443.98
2023-01-26T13:06:14.138Z,101438.88
2023-01-26T13:08:56.827Z,101428.83
2023-01-26T13:11:44.028Z,101428.80
2023-01-26T13:14:31.697Z,101440.02
2023-01-26T13:17:17.079Z,101442.67
2023-01-26T13:19:46.540Z,101448.59
2023-01-26T13:22:25.260Z,101447.32
2023-01-26T13:24:55.368Z,101444.16
2023-01-26T13:27:39.173Z,101442.20
2023-01-26T13:30:27.842Z,101448.88
2023-01-26T13:33:11.527Z,101454.64
2023-01-26T13:35:38.483Z,101456.91
2023-01-26T13:38:21.907Z,101451.19
2023-01-26T13:40:49.901Z,101447.48
2023-01-26T13:43:36.123Z,101451.09
2023-01-26T13:46:25.639Z,101456.61
2023-01-26T13:48:53.798Z,101451.90
2023-01-26T17:58:40.728Z,101401.41
2023-01-26T18:01:09.885Z,101394.74
2023-01-26T18:03:42.860Z,101394.80
2023-01-26T18:06:11.954Z,101397.06
2023-01-26T18:08:42.959Z,101394.20
2023-01-26T18:11:13.087Z,101390.28
2023-01-26T18:13:41.946Z,101385.91
2023-01-26T18:16:13.350Z,101387.25
2023-01-26T18:18:42.051Z,101387.55
2023-01-26T18:21:19.980Z,101382.81
2023-01-26T18:23:49.015Z,101383.95
2023-01-26T18:26:18.025Z,101384.02
2023-01-26T18:28:46.777Z,101388.82
2023-01-26T18:31:21.240Z,101391.48
2023-01-26T18:33:52.002Z,101392.41
2023-01-26T18:36:21.308Z,101393.75
2023-01-26T18:39:01.218Z,101392.63
2023-01-26T18:41:31.435Z,101390.41
2023-01-26T18:44:00.211Z,101380.59
2023-01-26T18:46:31.060Z,101384.94
2023-01-26T18:49:04.032Z,101385.83
2023-01-26T18:51:34.908Z,101383.44
2023-01-26T18:54:04.449Z,101379.70
2023-01-26T18:56:34.119Z,101377.84
2023-01-26T18:59:02.403Z,101381.34
2023-01-26T19:01:31.012Z,101380.23
2023-01-26T19:03:59.329Z,101381.31
2023-01-26T19:06:28.590Z,101378.39
2023-01-26T19:09:00.516Z,101373.56
2023-01-26T19:11:31.258Z,101374.89
2023-01-26T19:13:59.947Z,101373.73
2023-01-26T19:16:29.272Z,101375.70
2023-01-26T19:18:57.832Z,101374.79
2023-01-26T19:21:27.881Z,101375.59
2023-01-26T19:23:57.931Z,101378.36
2023-01-26T19:26:28.104Z,101378.96
2023-01-26T19:28:56.473Z,101381.85
2023-01-26T19:31:26.767Z,101378.55
2023-01-26T19:33:57.173Z,101370.34
2023-01-26T19:36:26.252Z,101369.28
2023-01-26T19:38:55.463Z,101370.58
2023-01-26T19:41:24.010Z,101366.30
2023-01-26T19:43:52.705Z,101364.26
2023-01-26T19:46:21.419Z,101368.08
2023-01-26T19:48:50.787Z,101367.80
2023-01-26T19:51:23.777Z,101370.65
2023-01-26T19:53:55.987Z,101366.88
2023-01-26T19:56:29.668Z,101366.84
2023-01-26T19:58:59.981Z,101366.13
2023-01-26T20:01:34.091Z,101364.34
2023-01-26T20:04:07.636Z,101365.78
2023-01-26T20:06:36.578Z,101361.23
2023-01-26T20:09:06.629Z,101361.39
2023-01-26T20:11:35.236Z,101361.83
2023-01-26T20:14:06.593Z,101359.48
2023-01-26T20:16:36.149Z,101356.63
2023-01-26T20:19:07.160Z,101358.00
2023-01-26T20:21:38.993Z,101352.39
2023-01-26T20:24:09.337Z,101356.63
2023-01-26T20:26:39.179Z,101355.96
2023-01-26T20:29:11.462Z,101353.20
2023-01-26T20:31:39.954Z,101352.98
2023-01-26T20:34:09.877Z,101352.39
2023-01-26T20:36:40.596Z,101354.70
2023-01-26T20:39:11.932Z,101354.04
2023-01-26T20:41:40.881Z,101353.09
2023-01-26T20:44:10.319Z,101350.14
2023-01-26T20:46:40.619Z,101349.91
2023-01-26T20:49:12.179Z,101352.11
2023-01-26T20:51:43.844Z,101350.56
2023-01-26T20:54:16.600Z,101352.95
2023-01-26T20:56:49.218Z,101354.40
2023-01-26T20:59:18.793Z,101354.75
2023-01-26T21:01:47.392Z,101350.40
2023-01-26T21:04:16.589Z,101346.41
2023-01-26T21:06:45.174Z,101347.67
2023-01-26T21:09:13.733Z,101337.56
2023-01-26T21:11:44.111Z,101340.08
2023-01-26T21:14:13.776Z,101333.98
2023-01-26T21:16:48.693Z,101330.56
2023-01-26T21:19:17.514Z,101328.22
2023-01-26T21:21:46.079Z,101323.66
2023-01-26T21:24:15.523Z,101323.45
2023-01-26T21:26:43.777Z,101316.64
2023-01-26T21:29:14.416Z,101311.52
2023-01-26T21:31:43.028Z,101313.66
2023-01-26T21:34:11.723Z,101314.11
2023-01-26T21:36:39.917Z,101308.61
2023-01-26T21:39:12.501Z,101307.23
2023-01-26T21:41:55.982Z,101303.77
2023-01-26T21:44:26.191Z,101301.55
2023-01-26T21:46:57.250Z,101300.45
2023-01-26T21:49:25.449Z,101300.24
2023-01-26T21:52:12.731Z,101303.69
